Time;durP1;ratioP1;P1;durP2;ratioP2;P2;SDS_P1;SDS_P2;PMS_P1;PMS_P2;Temp;Humidity;BMP_temperature;BMP_pressure;BME280_temperature;BME280_humidity;BME280_pressure;Samples;Min_cycle;Max_cycle;Signal;HPM_P1;HPM_P2
2021/07/22 00:00:22;;;;;;;10.82;8.40;;;;;;;-145.61;100.00;68426.72;6215496;23;19997;-95
2021/07/22 00:02:48;;;;;;;12.40;8.50;;;;;;;-145.61;100.00;68426.72;6215397;23;20032;-95
2021/07/22 00:08:36;;;;;;;11.70;8.43;;;;;;;-145.61;100.00;68426.72;6216730;23;20112;-96
2021/07/22 00:11:01;;;;;;;15.38;8.45;;;;;;;-145.61;100.00;68426.72;6215509;23;20087;-95
2021/07/22 00:13:27;;;;;;;204.95;19.77;;;;;;;-145.61;100.00;68426.72;6215257;23;20094;-94
2021/07/22 00:15:53;;;;;;;13.45;8.20;;;;;;;-145.61;100.00;68426.72;6215433;23;20015;-95
2021/07/22 00:18:19;;;;;;;10.15;8.43;;;;;;;-145.61;100.00;68426.72;6215203;23;20013;-95
2021/07/22 00:20:44;;;;;;;13.90;8.15;;;;;;;-145.61;100.00;68426.72;6215344;23;20013;-96
2021/07/22 00:23:12;;;;;;;11.05;7.70;;;;;;;-145.61;100.00;68426.72;6215402;23;20008;-96
2021/07/22 00:25:38;;;;;;;10.13;8.00;;;;;;;-145.61;100.00;68426.72;6215452;23;20050;-95
2021/07/22 00:28:03;;;;;;;10.43;8.02;;;;;;;-145.61;100.00;68426.72;6216385;23;20005;-95
2021/07/22 00:30:29;;;;;;;11.27;8.13;;;;;;;-145.61;100.00;68426.72;6217229;23;20326;-95
2021/07/22 00:32:57;;;;;;;13.65;8.82;;;;;;;-145.61;100.00;68426.72;6217204;23;20470;-96
2021/07/22 00:35:23;;;;;;;12.60;9.10;;;;;;;-145.61;100.00;68426.72;6217380;23;20004;-95
2021/07/22 00:37:49;;;;;;;11.70;8.38;;;;;;;-145.61;100.00;68426.72;6216988;23;20026;-95
2021/07/22 00:40:14;;;;;;;10.52;8.35;;;;;;;-145.61;100.00;68426.72;6217422;23;20052;-96
2021/07/22 00:42:59;;;;;;;15.38;8.98;;;;;;;-145.61;100.00;68426.72;6217144;23;20000;-95
2021/07/22 00:45:25;;;;;;;11.13;8.65;;;;;;;-145.61;100.00;68426.72;6217155;23;20039;-95
2021/07/22 00:47:52;;;;;;;10.90;8.30;;;;;;;-145.61;100.00;68426.72;6217110;23;20004;-95
2021/07/22 00:50:18;;;;;;;13.45;7.95;;;;;;;-145.61;100.00;68426.72;6217095;23;20012;-95
2021/07/22 00:52:43;;;;;;;9.15;8.10;;;;;;;-145.61;100.00;68426.72;6216874;23;20319;-95
2021/07/22 00:55:09;;;;;;;11.07;8.32;;;;;;;-145.61;100.00;68426.72;6216893;23;20013;-96
2021/07/22 00:57:34;;;;;;;11.45;8.23;;;;;;;-145.61;100.00;68426.72;6216874;23;20015;-96
2021/07/22 01:00:00;;;;;;;10.50;7.78;;;;;;;-145.61;100.00;68426.72;6216976;23;20001;-96
2021/07/22 01:02:25;;;;;;;11.27;8.10;;;;;;;-145.61;100.00;68426.72;6216973;23;20005;-95
2021/07/22 01:04:51;;;;;;;10.43;8.50;;;;;;;-145.61;100.00;68426.72;6216855;23;20035;-95
2021/07/22 01:07:16;;;;;;;10.23;8.65;;;;;;;-145.61;100.00;68426.72;6216729;23;20015;-96
2021/07/22 01:09:42;;;;;;;12.63;9.10;;;;;;;-145.61;100.00;68426.72;6216874;23;20009;-95
2021/07/22 01:12:07;;;;;;;10.45;8.70;;;;;;;-145.61;100.00;68426.72;6216729;23;20055;-95
2021/07/22 01:14:33;;;;;;;9.50;8.50;;;;;;;-145.61;100.00;68426.72;6216751;23;20004;-95
2021/07/22 01:17:00;;;;;;;12.27;8.57;;;;;;;-145.61;100.00;68426.72;6216896;23;20004;-96
2021/07/22 01:19:25;;;;;;;9.65;8.23;;;;;;;-145.61;100.00;68426.72;6216773;23;20071;-96
2021/07/22 01:21:51;;;;;;;10.02;8.23;;;;;;;-145.61;100.00;68426.72;6216894;23;20005;-95
2021/07/22 01:24:17;;;;;;;10.70;8.65;;;;;;;-145.61;100.00;68426.72;6216735;23;20005;-95
2021/07/22 01:26:42;;;;;;;10.23;8.57;;;;;;;-145.61;100.00;68426.72;6216651;23;20001;-96
2021/07/22 01:29:08;;;;;;;10.93;9.05;;;;;;;-145.61;100.00;68426.72;6216703;23;20011;-96
2021/07/22 01:31:34;;;;;;;11.02;9.00;;;;;;;-145.61;100.00;68426.72;6216782;23;20007;-95
2021/07/22 01:33:59;;;;;;;12.63;9.02;;;;;;;-145.61;100.00;68426.72;6216525;23;20091;-95
2021/07/22 01:36:25;;;;;;;12.50;9.02;;;;;;;-145.61;100.00;68426.72;6216776;23;20008;-95
2021/07/22 01:38:51;;;;;;;10.18;8.57;;;;;;;-145.61;100.00;68426.72;6220335;22;20063;-96
2021/07/22 01:41:17;;;;;;;10.43;8.30;;;;;;;-145.61;100.00;68426.72;6252125;22;20026;-95
2021/07/22 01:43:43;;;;;;;11.45;8.90;;;;;;;-145.61;100.00;68426.72;6251971;22;20011;-95
2021/07/22 01:46:09;;;;;;;56.17;10.60;;;;;;;-145.61;100.00;68426.72;6252012;22;20042;-94
2021/07/22 01:48:34;;;;;;;173.45;17.45;;;;;;;-145.61;100.00;68426.72;6251807;22;20000;-94
2021/07/22 01:51:00;;;;;;;48.33;10.43;;;;;;;-145.61;100.00;68426.72;6251901;22;20003;-94
2021/07/22 01:53:25;;;;;;;12.85;8.65;;;;;;;-145.61;100.00;68426.72;6251919;22;20134;-95
2021/07/22 01:55:51;;;;;;;11.52;8.25;;;;;;;-145.61;100.00;68426.72;6251973;22;20142;-94
2021/07/22 01:58:16;;;;;;;11.25;8.32;;;;;;;-145.61;100.00;68426.72;6251811;22;20041;-94
2021/07/22 02:00:42;;;;;;;9.38;8.27;;;;;;;-145.61;100.00;68426.72;6251856;22;20004;-94
2021/07/22 02:03:08;;;;;;;11.30;9.05;;;;;;;-145.61;100.00;68426.72;6251837;22;20008;-95
2021/07/22 02:05:33;;;;;;;24.45;9.45;;;;;;;-145.61;100.00;68426.72;6251814;22;20004;-95
2021/07/22 02:07:59;;;;;;;42.50;10.30;;;;;;;-145.61;100.00;68426.72;6251889;22;20015;-94
2021/07/22 02:10:24;;;;;;;10.52;8.45;;;;;;;-145.61;100.00;68426.72;6251748;22;20007;-94
2021/07/22 02:12:50;;;;;;;9.25;7.90;;;;;;;-145.61;100.00;68426.72;6251747;22;20011;-93
2021/07/22 02:15:15;;;;;;;12.73;8.20;;;;;;;-145.61;100.00;68426.72;6251621;22;20003;-94
2021/07/22 02:17:41;;;;;;;10.68;8.32;;;;;;;-145.61;100.00;68426.72;6251698;22;20061;-94
2021/07/22 02:20:08;;;;;;;10.45;8.00;;;;;;;-145.61;100.00;68426.72;6251695;22;20035;-94
2021/07/22 02:22:34;;;;;;;10.95;8.20;;;;;;;-145.61;100.00;68426.72;6251670;22;19999;-94
2021/07/22 02:24:59;;;;;;;11.00;8.65;;;;;;;-145.61;100.00;68426.72;6251522;22;20079;-94
2021/07/22 02:27:25;;;;;;;12.18;8.27;;;;;;;-145.61;100.00;68426.72;6251661;22;20014;-94
2021/07/22 02:29:50;;;;;;;11.63;8.60;;;;;;;-145.61;100.00;68426.72;6251768;22;20029;-94
2021/07/22 02:32:16;;;;;;;10.07;8.35;;;;;;;-145.61;100.00;68426.72;6251354;22;20008;-94
2021/07/22 02:34:41;;;;;;;12.02;8.65;;;;;;;-145.61;100.00;68426.72;6251415;22;20007;-95
2021/07/22 02:37:07;;;;;;;12.70;8.25;;;;;;;-145.61;100.00;68426.72;6251566;22;20011;-95
2021/07/22 02:39:38;;;;;;;12.40;8.20;;;;;;;-145.61;100.00;68426.72;6251093;22;20384;-95
2021/07/22 02:42:03;;;;;;;;;;;;;;;-145.61;100.00;68426.72;6251809;22;20045;-94
2021/07/22 02:44:29;;;;;;;10.50;8.73;;;;;;;-145.61;100.00;68426.72;6251301;22;19907;-94
2021/07/22 02:46:55;;;;;;;12.18;8.65;;;;;;;-145.61;100.00;68426.72;6251283;22;20015;-94
2021/07/22 02:49:20;;;;;;;11.55;8.32;;;;;;;-145.61;100.00;68426.72;6251493;22;20003;-95
2021/07/22 02:51:46;;;;;;;13.32;8.95;;;;;;;-145.61;100.00;68426.72;6250813;22;20007;-94
2021/07/22 02:54:12;;;;;;;12.85;8.65;;;;;;;-145.61;100.00;68426.72;6251268;22;20003;-94
2021/07/22 02:56:38;;;;;;;12.48;8.80;;;;;;;-145.61;100.00;68426.72;6251328;22;20059;-94
2021/07/22 02:59:04;;;;;;;10.45;8.82;;;;;;;-145.61;100.00;68426.72;6251380;22;20038;-95
2021/07/22 03:01:29;;;;;;;9.90;8.75;;;;;;;-145.61;100.00;68426.72;6251363;22;20012;-95
2021/07/22 03:03:56;;;;;;;11.15;8.77;;;;;;;-145.61;100.00;68426.72;6251122;22;20062;-95
2021/07/22 03:06:22;;;;;;;14.43;9.13;;;;;;;-145.61;100.00;68426.72;6251200;22;20065;-95
2021/07/22 03:08:47;;;;;;;14.07;8.95;;;;;;;-145.61;100.00;68426.72;6251393;22;20004;-94
2021/07/22 03:11:13;;;;;;;18.08;8.85;;;;;;;-145.61;100.00;68426.72;6251153;22;20004;-95
2021/07/22 03:13:39;;;;;;;11.10;8.10;;;;;;;-145.61;100.00;68426.72;6251087;22;20007;-95
2021/07/22 03:16:06;;;;;;;11.32;8.90;;;;;;;-145.61;100.00;68426.72;6251107;22;20008;-95
2021/07/22 03:18:33;;;;;;;12.60;8.93;;;;;;;-145.61;100.00;68426.72;6251288;22;20443;-94
2021/07/22 03:21:01;;;;;;;12.32;8.95;;;;;;;-145.61;100.00;68426.72;6250965;22;20003;-95
2021/07/22 03:23:26;;;;;;;11.75;9.25;;;;;;;-145.61;100.00;68426.72;6251175;22;20057;-95
2021/07/22 03:25:52;;;;;;;11.15;8.98;;;;;;;-145.61;100.00;68426.72;6251265;22;20086;-94
2021/07/22 03:28:18;;;;;;;11.50;9.07;;;;;;;-145.61;100.00;68426.72;6251230;22;20000;-94
2021/07/22 03:30:43;;;;;;;12.45;9.48;;;;;;;-145.61;100.00;68426.72;6251130;22;20003;-95
2021/07/22 03:33:09;;;;;;;12.68;9.43;;;;;;;-145.61;100.00;68426.72;6251038;22;20018;-94
2021/07/22 03:35:35;;;;;;;11.85;8.55;;;;;;;-145.61;100.00;68426.72;6250917;22;20000;-94
2021/07/22 03:38:01;;;;;;;12.85;9.93;;;;;;;-145.61;100.00;68426.72;6251155;22;20000;-95
2021/07/22 03:40:27;;;;;;;10.50;9.40;;;;;;;-145.61;100.00;68426.72;6250709;22;20035;-95
2021/07/22 03:42:54;;;;;;;11.60;9.68;;;;;;;-145.61;100.00;68426.72;6250989;22;20011;-94
2021/07/22 03:45:19;;;;;;;10.88;9.25;;;;;;;-145.61;100.00;68426.72;6251308;22;20344;-95
2021/07/22 03:47:45;;;;;;;14.25;9.43;;;;;;;-145.61;100.00;68426.72;6250986;22;20000;-95
2021/07/22 03:50:10;;;;;;;13.95;9.57;;;;;;;-145.61;100.00;68426.72;6250835;22;20000;-95
2021/07/22 03:52:36;;;;;;;11.60;9.82;;;;;;;-145.61;100.00;68426.72;6250813;22;20004;-94
2021/07/22 03:55:02;;;;;;;11.82;9.52;;;;;;;-145.61;100.00;68426.72;6251113;22;20459;-94
2021/07/22 03:57:28;;;;;;;12.65;8.77;;;;;;;-145.61;100.00;68426.72;6250910;22;20066;-95
2021/07/22 03:59:53;;;;;;;16.77;9.45;;;;;;;-145.61;100.00;68426.72;6250840;22;20003;-94
2021/07/22 04:02:19;;;;;;;12.98;9.35;;;;;;;-145.61;100.00;68426.72;6251570;22;20436;-95
2021/07/22 04:04:45;;;;;;;12.35;9.43;;;;;;;-145.61;100.00;68426.72;6252999;22;20282;-94
2021/07/22 04:07:10;;;;;;;14.95;9.45;;;;;;;-145.61;100.00;68426.72;6252891;22;20015;-94
2021/07/22 04:09:36;;;;;;;13.43;9.20;;;;;;;-145.61;100.00;68426.72;6252800;22;20004;-94
2021/07/22 04:12:02;;;;;;;11.00;9.40;;;;;;;-145.61;100.00;68426.72;6252836;22;20012;-94
2021/07/22 04:14:27;;;;;;;13.18;9.68;;;;;;;-145.61;100.00;68426.72;6252613;22;20008;-94
2021/07/22 04:16:52;;;;;;;14.32;9.32;;;;;;;-145.61;100.00;68426.72;6252985;22;20320;-95
2021/07/22 04:19:18;;;;;;;14.15;9.13;;;;;;;-145.61;100.00;68426.72;6252832;22;20010;-94
2021/07/22 04:21:44;;;;;;;12.82;9.25;;;;;;;-145.61;100.00;68426.72;6252709;22;20008;-95
2021/07/22 04:24:10;;;;;;;13.82;8.70;;;;;;;-145.61;100.00;68426.72;6252653;22;20049;-94
2021/07/22 04:26:35;;;;;;;18.58;9.68;;;;;;;-145.61;100.00;68426.72;6252748;22;20502;-94
2021/07/22 04:29:01;;;;;;;13.80;8.98;;;;;;;-145.61;100.00;68426.72;6252687;22;20095;-93
2021/07/22 04:31:26;;;;;;;13.13;9.63;;;;;;;-145.61;100.00;68426.72;6252664;22;20054;-93
2021/07/22 04:33:52;;;;;;;11.90;9.23;;;;;;;-145.61;100.00;68426.72;6252392;22;20008;-92
2021/07/22 04:36:18;;;;;;;13.95;9.35;;;;;;;-145.61;100.00;68426.72;6252351;22;20015;-93
2021/07/22 04:38:43;;;;;;;12.13;9.50;;;;;;;-145.61;100.00;68426.72;6252513;22;20004;-92
2021/07/22 04:41:09;;;;;;;10.93;9.20;;;;;;;-145.61;100.00;68426.72;6252514;22;20012;-93
2021/07/22 04:43:35;;;;;;;14.40;9.07;;;;;;;-145.61;100.00;68426.72;6252541;22;20004;-93
2021/07/22 04:46:02;;;;;;;14.85;10.27;;;;;;;-145.61;100.00;68426.72;6252500;22;20011;-92
2021/07/22 04:48:29;;;;;;;13.30;9.65;;;;;;;-145.61;100.00;68426.72;6252547;22;20078;-93
2021/07/22 04:50:54;;;;;;;16.60;9.93;;;;;;;-145.61;100.00;68426.72;6252342;22;20054;-93
2021/07/22 04:53:20;;;;;;;14.30;9.30;;;;;;;-145.61;100.00;68426.72;6252558;22;20364;-93
2021/07/22 04:55:45;;;;;;;11.05;8.75;;;;;;;-145.61;100.00;68426.72;6252405;22;20010;-93
2021/07/22 04:58:11;;;;;;;14.98;9.43;;;;;;;-145.61;100.00;68426.72;6252425;22;20015;-92
2021/07/22 05:00:37;;;;;;;14.30;9.85;;;;;;;-145.61;100.00;68426.72;6253170;22;20078;-93
2021/07/22 05:03:02;;;;;;;12.85;8.80;;;;;;;-145.61;100.00;68426.72;6252263;22;20091;-93
2021/07/22 05:05:29;;;;;;;16.20;9.90;;;;;;;-145.61;100.00;68426.72;6252361;22;20011;-93
2021/07/22 05:07:58;;;;;;;12.93;9.50;;;;;;;-145.61;100.00;68426.72;6253224;22;20007;-95
2021/07/22 05:20:29;;;;;;;10.52;8.93;;;;;;;-145.61;100.00;68426.72;6279109;22;20006;-93
2021/07/22 05:22:54;;;;;;;11.60;9.90;;;;;;;-145.61;100.00;68426.72;6252302;22;20039;-93
2021/07/22 05:25:20;;;;;;;14.38;8.93;;;;;;;-145.61;100.00;68426.72;6252192;22;20050;-92
2021/07/22 05:27:45;;;;;;;13.48;9.48;;;;;;;-145.61;100.00;68426.72;6252078;22;20027;-93
2021/07/22 05:30:11;;;;;;;13.82;9.18;;;;;;;-145.61;100.00;68426.72;6251851;22;20000;-93
2021/07/22 05:32:37;;;;;;;12.32;8.68;;;;;;;-145.61;100.00;68426.72;6251932;22;20022;-93
2021/07/22 05:35:02;;;;;;;15.80;9.73;;;;;;;-145.61;100.00;68426.72;6251858;22;20446;-93
2021/07/22 05:37:28;;;;;;;12.13;9.50;;;;;;;-145.61;100.00;68426.72;6251960;22;19999;-92
2021/07/22 05:39:54;;;;;;;17.15;9.82;;;;;;;-145.61;100.00;68426.72;6230928;23;20024;-93
2021/07/22 05:42:19;;;;;;;15.85;9.82;;;;;;;-145.61;100.00;68426.72;6218424;23;20047;-94
2021/07/22 05:44:45;;;;;;;14.38;10.63;;;;;;;-145.61;100.00;68426.72;6216911;23;20424;-93
2021/07/22 05:47:10;;;;;;;13.77;10.48;;;;;;;-145.61;100.00;68426.72;6216671;23;20004;-92
2021/07/22 05:49:36;;;;;;;15.70;10.00;;;;;;;-145.61;100.00;68426.72;6216670;23;20005;-93
2021/07/22 05:52:01;;;;;;;18.88;10.82;;;;;;;-145.61;100.00;68426.72;6216357;23;20146;-93
2021/07/22 05:54:27;;;;;;;15.18;11.32;;;;;;;-145.61;100.00;68426.72;6215812;23;20008;-94
2021/07/22 05:56:52;;;;;;;17.55;11.13;;;;;;;-145.61;100.00;68426.72;6215763;23;20011;-95
2021/07/22 05:59:18;;;;;;;18.05;10.73;;;;;;;-145.61;100.00;68426.72;6215909;23;20454;-93
2021/07/22 06:01:43;;;;;;;16.73;10.88;;;;;;;-145.61;100.00;68426.72;6216182;23;20009;-94
2021/07/22 06:04:40;;;;;;;15.20;10.57;;;;;;;-145.61;100.00;68426.72;6216211;23;20036;-93
2021/07/22 06:07:06;;;;;;;16.13;10.02;;;;;;;-145.61;100.00;68426.72;6216291;23;20009;-94
2021/07/22 06:09:31;;;;;;;15.15;10.15;;;;;;;-145.61;100.00;68426.72;6216278;23;20010;-92
2021/07/22 06:11:57;;;;;;;16.42;11.30;;;;;;;-145.61;100.00;68426.72;6216105;23;20000;-93
2021/07/22 06:14:23;;;;;;;18.27;10.48;;;;;;;-145.61;100.00;68426.72;6212989;23;20004;-93
2021/07/22 06:16:48;;;;;;;12.73;10.35;;;;;;;-145.61;100.00;68426.72;6215542;23;20029;-94
2021/07/22 06:19:14;;;;;;;13.45;10.18;;;;;;;-145.61;100.00;68426.72;6215287;23;20036;-93
2021/07/22 06:21:39;;;;;;;14.88;9.55;;;;;;;-145.61;100.00;68426.72;6215926;23;20004;-93
2021/07/22 06:24:05;;;;;;;14.55;9.05;;;;;;;-145.61;100.00;68426.72;6215930;23;20011;-93
2021/07/22 06:26:34;;;;;;;12.68;9.68;;;;;;;-145.61;100.00;68426.72;6215781;23;20395;-94
2021/07/22 06:29:03;;;;;;;12.77;9.82;;;;;;;-145.61;100.00;68426.72;6215881;23;20012;-94
2021/07/22 06:31:29;;;;;;;12.80;9.50;;;;;;;-145.61;100.00;68426.72;6215860;23;20043;-95
2021/07/22 06:33:58;;;;;;;12.98;8.80;;;;;;;-145.61;100.00;68426.72;6215692;23;20008;-94
2021/07/22 06:36:24;;;;;;;14.23;9.70;;;;;;;-145.61;100.00;68426.72;6215595;23;20438;-95
2021/07/22 06:38:49;;;;;;;17.02;10.15;;;;;;;-145.61;100.00;68426.72;6219068;22;20015;-94
2021/07/22 06:41:18;;;;;;;13.75;9.40;;;;;;;-145.61;100.00;68426.72;6251249;22;20007;-93
2021/07/22 06:43:44;;;;;;;12.35;9.40;;;;;;;-145.61;100.00;68426.72;6251140;22;20008;-94
2021/07/22 06:46:10;;;;;;;13.55;9.48;;;;;;;-145.61;100.00;68426.72;6251085;22;20007;-94
2021/07/22 06:48:36;;;;;;;12.27;9.32;;;;;;;-145.61;100.00;68426.72;6251029;22;19999;-93
2021/07/22 06:51:05;;;;;;;13.75;8.70;;;;;;;-145.61;100.00;68426.72;6251359;22;20447;-93
2021/07/22 06:53:30;;;;;;;15.73;8.77;;;;;;;-145.61;100.00;68426.72;6250958;22;20011;-93
2021/07/22 06:55:57;;;;;;;12.48;9.10;;;;;;;-145.61;100.00;68426.72;6249487;22;20003;-93
2021/07/22 06:58:22;;;;;;;16.05;8.55;;;;;;;-145.61;100.00;68426.72;6250774;22;20006;-93
2021/07/22 07:00:48;;;;;;;14.35;8.55;;;;;;;-145.61;100.00;68426.72;6250689;22;20427;-93
2021/07/22 07:03:13;;;;;;;15.88;9.07;;;;;;;-145.61;100.00;68426.72;6250879;22;19995;-90
2021/07/22 07:05:39;;;;;;;14.38;8.40;;;;;;;-145.61;100.00;68426.72;6251001;22;20030;-93
2021/07/22 07:08:04;;;;;;;12.93;8.20;;;;;;;-145.61;100.00;68426.72;6250838;22;20007;-94
2021/07/22 07:10:30;;;;;;;12.07;7.53;;;;;;;-145.61;100.00;68426.72;6250493;22;20007;-93
2021/07/22 07:12:57;;;;;;;10.90;6.90;;;;;;;-145.61;100.00;68426.72;6250725;22;20008;-93
2021/07/22 07:15:23;;;;;;;9.68;6.88;;;;;;;-145.61;100.00;68426.72;6250539;22;20003;-93
2021/07/22 07:17:49;;;;;;;10.00;6.50;;;;;;;-145.61;100.00;68426.72;6250366;22;20015;-93
2021/07/22 07:20:15;;;;;;;10.13;6.75;;;;;;;-145.61;100.00;68426.72;6250621;22;20332;-92
2021/07/22 07:22:41;;;;;;;10.30;6.82;;;;;;;-145.61;100.00;68426.72;6250548;22;20008;-92
2021/07/22 07:25:07;;;;;;;10.65;6.82;;;;;;;-145.61;100.00;68426.72;6250720;22;20045;-92
2021/07/22 07:27:34;;;;;;;14.75;7.50;;;;;;;16.60;68.67;96616.25;6250035;22;20004;-92
2021/07/22 07:30:00;;;;;;;8.70;7.10;;;;;;;16.60;68.67;96616.25;6249926;22;20137;-93
2021/07/22 07:32:25;;;;;;;9.55;7.10;;;;;;;16.60;68.67;96616.25;6250344;22;20050;-93
2021/07/22 07:34:51;;;;;;;9.05;6.53;;;;;;;18.47;60.63;96666.25;6250446;22;20344;-92
2021/07/22 07:37:16;;;;;;;7.97;6.53;;;;;;;18.46;62.25;96648.25;6250240;22;20077;-92
2021/07/22 07:39:41;;;;;;;15.75;7.32;;;;;;;18.49;62.86;96631.50;6249791;22;20012;-92
2021/07/22 07:42:07;;;;;;;9.73;6.05;;;;;;;18.49;62.86;96631.50;6250177;22;20000;-92
2021/07/22 07:44:32;;;;;;;9.32;6.85;;;;;;;18.49;62.86;96631.50;6250567;22;20003;-93
2021/07/22 07:46:58;;;;;;;10.57;6.45;;;;;;;18.99;62.86;96651.88;6250355;22;20010;-93
2021/07/22 07:49:23;;;;;;;9.73;6.43;;;;;;;-145.61;100.00;68426.72;6250799;22;20050;-94
2021/07/22 07:51:49;;;;;;;11.30;6.55;;;;;;;19.28;61.12;96664.25;6251110;22;20035;-93
2021/07/22 07:54:20;;;;;;;9.27;6.50;;;;;;;19.22;58.81;96656.00;6251020;22;20010;-93
2021/07/22 07:56:45;;;;;;;8.23;6.05;;;;;;;19.08;59.31;96640.59;6250747;22;20061;-93
2021/07/22 07:59:10;;;;;;;8.18;6.28;;;;;;;19.17;59.30;96653.28;6250793;22;20004;-94
2021/07/22 08:01:36;;;;;;;8.40;5.95;;;;;;;19.25;59.72;96659.78;6250750;22;20007;-93
2021/07/22 08:04:01;;;;;;;8.45;6.05;;;;;;;19.20;58.18;96647.53;6250690;22;19998;-94
2021/07/22 08:06:27;;;;;;;7.57;5.55;;;;;;;19.16;56.99;96630.53;6250759;22;20404;-92
2021/07/22 08:08:52;;;;;;;8.27;6.07;;;;;;;19.39;57.83;96650.44;6250859;22;20006;-93
2021/07/22 08:11:18;;;;;;;7.63;5.63;;;;;;;19.52;59.90;96672.63;6250981;22;20007;-94
2021/07/22 08:13:44;;;;;;;8.55;5.22;;;;;;;19.38;58.30;96641.41;6250797;22;20000;-93
2021/07/22 08:16:15;;;;;;;7.57;5.03;;;;;;;19.71;59.70;96664.53;6250779;22;20042;-94
2021/07/22 08:18:41;;;;;;;7.72;5.47;;;;;;;19.80;58.30;96658.69;6251023;22;19999;-94
2021/07/22 08:21:06;;;;;;;9.10;5.90;;;;;;;19.76;55.38;96644.47;6250752;22;20030;-94
2021/07/22 08:23:32;;;;;;;7.30;5.43;;;;;;;19.75;55.96;96648.47;6250805;22;20417;-95
2021/07/22 08:25:57;;;;;;;8.90;6.03;;;;;;;19.75;55.65;96636.69;6250768;22;20015;-94
2021/07/22 08:28:22;;;;;;;9.85;5.85;;;;;;;19.76;55.31;96632.66;6250615;22;20072;-94
2021/07/22 08:30:48;;;;;;;11.73;5.80;;;;;;;19.81;56.45;96623.63;6250564;22;20480;-94
2021/07/22 08:33:13;;;;;;;7.72;5.35;;;;;;;19.79;55.26;96615.88;6250947;22;20091;-94
2021/07/22 08:35:39;;;;;;;8.73;5.68;;;;;;;19.87;54.41;96630.59;6250767;22;20086;-93
2021/07/22 08:38:04;;;;;;;9.60;6.20;;;;;;;20.02;54.96;96651.50;6250713;22;20079;-94
2021/07/22 08:40:30;;;;;;;7.82;5.45;;;;;;;19.74;55.47;96605.66;6222544;23;20442;-94
2021/07/22 08:43:02;;;;;;;8.82;5.28;;;;;;;20.05;53.52;96642.22;6215342;23;20004;-94
2021/07/22 08:45:27;;;;;;;7.65;5.55;;;;;;;19.90;54.29;96604.00;6215288;23;20000;-94
2021/07/22 08:47:53;;;;;;;9.48;5.50;;;;;;;20.32;55.06;96616.41;6215146;23;20100;-93
2021/07/22 08:50:20;;;;;;;6.93;5.30;;;;;;;20.62;54.80;96616.38;6216327;23;20005;-93
2021/07/22 08:52:47;;;;;;;7.68;5.25;;;;;;;20.57;53.97;96611.66;6216855;23;20400;-94
2021/07/22 08:55:15;;;;;;;6.43;4.93;;;;;;;20.53;52.41;96624.25;6214608;23;20039;-93
2021/07/22 08:57:41;;;;;;;5.85;4.85;;;;;;;20.73;53.66;96598.19;6216890;23;20015;-94
2021/07/22 09:00:07;;;;;;;7.15;5.05;;;;;;;20.70;52.92;96605.50;6216764;23;20480;-94
2021/07/22 09:02:33;;;;;;;7.53;5.10;;;;;;;20.89;53.95;96603.50;6216858;23;20004;-93
2021/07/22 09:05:00;;;;;;;9.18;5.30;;;;;;;20.98;52.57;96594.09;6216486;23;20451;-93
2021/07/22 09:07:27;;;;;;;8.40;5.18;;;;;;;21.24;52.32;96634.94;6216445;23;20383;-92
2021/07/22 09:10:05;;;;;;;7.85;5.65;;;;;;;21.52;52.79;96629.06;6216431;23;20063;-93
2021/07/22 09:12:57;;;;;;;6.47;5.05;;;;;;;21.51;51.10;96607.47;6216957;23;20004;-93
2021/07/22 09:15:27;;;;;;;6.82;4.85;;;;;;;21.66;51.90;96627.09;6210742;23;20015;-93
2021/07/22 09:17:53;;;;;;;;;;;;;;;21.79;51.94;96620.88;6217073;23;20008;-93
2021/07/22 09:20:45;;;;;;;7.72;5.43;;;;;;;21.80;51.05;96625.88;6216352;23;19904;-92
2021/07/22 09:23:18;;;;;;;8.20;4.80;;;;;;;21.65;50.66;96600.72;6210356;23;20009;-93
2021/07/22 09:25:46;;;;;;;5.88;4.88;;;;;;;21.60;50.10;96596.03;6216459;23;20004;-93
2021/07/22 09:28:16;;;;;;;8.18;4.53;;;;;;;21.49;47.80;96619.06;6216447;23;20000;-92
2021/07/22 09:30:57;;;;;;;7.32;3.90;;;;;;;21.43;47.40;96619.13;6216192;23;20341;-94
2021/07/22 09:33:34;;;;;;;6.65;4.53;;;;;;;21.54;49.31;96617.47;6215445;23;20004;-93
2021/07/22 09:36:00;;;;;;;6.88;4.68;;;;;;;21.44;46.70;96612.31;6216104;23;20016;-92
2021/07/22 09:38:27;;;;;;;5.55;4.47;;;;;;;21.18;48.54;96579.03;6216014;23;20013;-93
2021/07/22 09:40:54;;;;;;;4.65;4.20;;;;;;;21.50;48.23;96597.69;6216072;23;20079;-93
2021/07/22 09:43:40;;;;;;;6.97;4.82;;;;;;;21.48;48.54;96586.44;6215774;23;20028;-93
2021/07/22 09:46:06;;;;;;;4.88;4.30;;;;;;;21.58;46.89;96598.59;6216061;23;20010;-93
2021/07/22 09:48:32;;;;;;;6.63;4.70;;;;;;;21.40;47.95;96600.09;6216015;23;20004;-93
2021/07/22 09:50:57;;;;;;;6.05;4.63;;;;;;;21.42;48.24;96595.53;6216243;23;20001;-93
2021/07/22 09:53:25;;;;;;;5.65;4.70;;;;;;;21.43;46.99;96591.50;6215618;23;20087;-92
2021/07/22 09:55:54;;;;;;;10.27;4.50;;;;;;;21.21;45.95;96572.47;6217417;23;20000;-93
2021/07/22 09:58:20;;;;;;;6.57;4.70;;;;;;;21.24;46.33;96570.66;6215766;23;20488;-93
2021/07/22 10:00:50;;;;;;;6.45;4.28;;;;;;;21.39;48.85;96584.78;6215855;23;20043;-93
2021/07/22 10:03:19;;;;;;;7.75;4.57;;;;;;;21.63;46.00;96609.56;6215650;23;20028;-94
2021/07/22 10:06:10;;;;;;;4.60;4.20;;;;;;;21.83;45.13;96605.44;6216220;23;20009;-94
2021/07/22 10:08:38;;;;;;;4.95;4.45;;;;;;;22.08;44.75;96580.41;6215765;23;20039;-94
2021/07/22 10:11:04;;;;;;;5.93;4.75;;;;;;;22.57;43.11;96593.88;6215609;23;20008;-93
2021/07/22 10:13:39;;;;;;;5.95;4.05;;;;;;;22.29;43.77;96583.34;6216309;23;20016;-93
2021/07/22 10:16:11;;;;;;;6.72;4.90;;;;;;;22.44;44.93;96569.75;6215698;23;20004;-93
2021/07/22 10:18:50;;;;;;;5.65;4.32;;;;;;;22.60;42.90;96573.47;6215907;23;20005;-94
2021/07/22 10:21:16;;;;;;;7.18;4.40;;;;;;;22.82;44.12;96569.50;6216102;23;20016;-95
2021/07/22 10:23:42;;;;;;;5.40;4.25;;;;;;;22.83;42.73;96588.31;6216296;23;20025;-95
2021/07/22 10:26:09;;;;;;;6.28;4.25;;;;;;;22.90;44.09;96546.16;6216007;23;20373;-93
2021/07/22 10:28:35;;;;;;;6.30;4.35;;;;;;;23.33;43.54;96556.06;6216023;23;20011;-94
2021/07/22 10:31:07;;;;;;;6.05;4.40;;;;;;;23.48;42.13;96561.75;6215913;23;20000;-94
2021/07/22 10:33:36;;;;;;;6.78;4.68;;;;;;;23.53;42.66;96549.78;6215913;23;20024;-95
2021/07/22 10:36:03;;;;;;;5.53;4.07;;;;;;;23.35;42.05;96567.34;6215945;23;20376;-94
2021/07/22 10:38:42;;;;;;;5.03;4.30;;;;;;;23.22;42.25;96581.22;6215998;23;20005;-94
2021/07/22 10:41:08;;;;;;;6.00;4.60;;;;;;;22.87;42.20;96554.78;6216012;23;20062;-93
2021/07/22 10:43:37;;;;;;;5.95;4.10;;;;;;;22.99;42.72;96578.22;6215975;23;20119;-93
2021/07/22 10:46:05;;;;;;;5.55;4.40;;;;;;;22.74;41.22;96561.06;6216113;23;20009;-93
2021/07/22 10:48:31;;;;;;;9.35;4.20;;;;;;;22.57;42.60;96521.94;6216065;23;20001;-93
2021/07/22 10:50:56;;;;;;;7.88;4.47;;;;;;;22.88;46.04;96572.91;6215846;23;20484;-94
2021/07/22 10:53:47;;;;;;;6.55;4.18;;;;;;;23.09;44.69;96539.75;6214983;23;20027;-94
2021/07/22 10:56:22;;;;;;;6.72;4.38;;;;;;;23.73;43.60;96551.09;6216187;23;20036;-95
2021/07/22 10:58:50;;;;;;;5.10;4.18;;;;;;;24.00;43.01;96537.81;6215708;23;20005;-94
2021/07/22 11:01:41;;;;;;;5.10;4.22;;;;;;;24.49;43.82;96567.56;6215828;23;20084;-93
2021/07/22 11:04:10;;;;;;;5.25;4.38;;;;;;;24.00;40.04;96545.38;6215934;23;20000;-93
2021/07/22 11:07:01;;;;;;;5.13;4.07;;;;;;;24.49;38.36;96559.22;6215504;23;20087;-93
2021/07/22 11:09:42;;;;;;;5.30;4.13;;;;;;;24.23;40.34;96520.56;6215632;23;20004;-95
2021/07/22 11:12:28;;;;;;;10.70;4.50;;;;;;;24.35;38.74;96544.00;6215256;23;20009;-94
2021/07/22 11:14:54;;;;;;;15.73;5.38;;;;;;;24.66;40.95;96513.59;6215002;23;20009;-94
2021/07/22 11:17:30;;;;;;;8.68;4.13;;;;;;;24.74;39.40;96520.69;6215567;23;20091;-95
2021/07/22 11:20:18;;;;;;;6.35;4.72;;;;;;;25.24;39.24;96564.94;6215717;23;20005;-95
2021/07/22 11:22:44;;;;;;;6.75;4.22;;;;;;;25.05;40.78;96540.22;6215713;23;20011;-94
2021/07/22 11:25:10;;;;;;;7.40;4.25;;;;;;;25.36;40.00;96526.44;6215654;23;20091;-95